• Join FlightAware (Why Join?)
  • Login
  • US Flag 
07:09AM EDT


 

Airport Tracker/Info


-or-


 

Live Flight TrackerFlight Track Log ✈ EJA922 ✈ 04-Jul-2013 ✈ KSOP - KHPN

Flight Track Log - Related Links

Times and Time Zones

All times are in EDT time to prevent confusion due to time zone crossing. See the EJA922 flight status page for this flight to view local times or setup timezone preferences in your user account.

Time Position Orientation Groundspeed Altitude Reporting Facility
EDT Latitude Longitude Course Direction KTS MPH feet Rate Location/Type
08:16AM 37.0998 -77.6980 36° Northeast  Level Estimated
08:17AM 37.1559 -77.6455 37° Northeast  Level Estimated
08:18AM 37.2119 -77.5929 37° Northeast  Level Estimated
08:19AM 37.2679 -77.5402 37° Northeast  Level Estimated
08:20AM 37.3239 -77.4875 37° Northeast  Level Estimated
08:21AM 37.3798 -77.4347 37° Northeast  Level Estimated
08:22AM 37.4357 -77.3818 37° Northeast  Level Estimated
08:23AM 37.4916 -77.3288 37° Northeast  Level Estimated
08:24AM 37.5475 -77.2758 37° Northeast  Level Estimated
08:25AM 37.6452 -77.1827 37° Northeast  Level Estimated
08:26AM 37.7429 -77.0895 37° Northeast  Level Estimated
08:27AM 37.8405 -76.9959 37° Northeast  Level Estimated
08:28AM 37.9380 -76.9022 37° Northeast  Level Estimated
08:29AM 38.0354 -76.8082 37° Northeast  Level Estimated
08:30AM 38.1328 -76.7139 37° Northeast  Level Estimated
08:31AM 38.2301 -76.6194 37° Northeast  Level Estimated
08:32AM 38.3273 -76.5246 37° Northeast  Level Estimated
08:33AM 38.4244 -76.4296 37° Northeast  Level Estimated
08:34AM 38.5215 -76.3343 38° Northeast  Level Estimated
08:35AM 38.6184 -76.2387 38° Northeast  Level Estimated
08:36AM 38.7153 -76.1430 38° Northeast  Level Estimated
08:37AM 38.8121 -76.0469 38° Northeast  Level Estimated
08:38AM 38.9089 -75.9506 38° Northeast  Level Estimated
08:39AM 39.0056 -75.8540 38° Northeast  Level Estimated
08:40AM 39.1021 -75.7571 38° Northeast  Level Estimated
08:41AM 39.1986 -75.6600 38° Northeast  Level Estimated
08:42AM 39.2951 -75.5627 38° Northeast  Level Estimated
08:43AM 39.3914 -75.4650 38° Northeast  Level Estimated
08:44AM 39.4877 -75.3671 38° Northeast  Level Estimated
08:45AM 39.5838 -75.2689 38° Northeast  Level Estimated
08:46AM 39.6799 -75.1704 38° Northeast  Level Estimated
08:47AM 39.7759 -75.0717 38° Northeast  Level Estimated
08:48AM 39.8718 -74.9727 38° Northeast  Level Estimated
08:49AM 39.9677 -74.8734 38° Northeast  Level Estimated
08:50AM 40.0634 -74.7738 39° Northeast  Level Estimated
08:51AM 40.1591 -74.6740 39° Northeast  Level Estimated
08:52AM 40.2547 -74.5739 39° Northeast  Level Estimated
08:53AM 40.3502 -74.4734 39° Northeast  Level Estimated
08:54AM 40.4456 -74.3727 39° Northeast  Level Estimated
08:55AM 40.5409 -74.2718 39° Northeast  Level Estimated
08:56AM 40.6361 -74.1705 39° Northeast  Level Estimated
08:57AM 40.7313 -74.0689 39° Northeast  Level Estimated
08:58AM 40.8264 -73.9671 39° Northeast  Level Estimated
08:59AM 40.9213 -73.8649 39° Northeast  Level Estimated
09:00AM 41.0162 -73.7625 39° Northeast  Level Estimated
09:01AM 41.0669 -73.7076 39° Northeast  Level Estimated
09:02AM 41.0669 -73.7076 37° Northeast  Level Estimated
09:03AM 41.0669 -73.7076 37° Northeast  Level Estimated
09:04AM 41.0669 -73.7076 37° Northeast  Level Estimated
09:05AM 41.0669 -73.7076 37° Northeast  Level Estimated
09:06AM 41.0669 -73.7076 37° Northeast  Level Estimated
09:07AM 41.0669 -73.7076 37° Northeast  Level Estimated
09:08AM 41.0669 -73.7076 37° Northeast  Level Estimated
09:09AM 41.0669 -73.7076 37° Northeast  Level Estimated
09:10AM 41.0669 -73.7076 37° Northeast  Level Estimated
09:11AM 41.0669 -73.7076 37° Northeast  Level Estimated
09:12AM 41.0669 -73.7076 37° Northeast  Level Estimated
09:13AM 41.0669 -73.7076 37° Northeast  Level Estimated
09:14AM 41.0669 -73.7076 37° Northeast  Level Estimated
09:15AM 41.0669 -73.7076 37° Northeast  Level Estimated
09:16AM 41.0669 -73.7076 37° Northeast  Level Estimated
09:17AM 41.0669 -73.7076 37° Northeast  Level Estimated
09:18AM 41.0669 -73.7076 37° Northeast  Level Estimated
09:19AM 41.0669 -73.7076 37° Northeast  Level Estimated
09:20AM 41.0669 -73.7076 37° Northeast  Level Estimated
09:21AM 41.0669 -73.7076 37° Northeast  Level Estimated
09:22AM 41.0669 -73.7076 37° Northeast  Level Estimated
09:23AM 41.0669 -73.7076 37° Northeast  Level Estimated
09:24AM 41.0669 -73.7076 37° Northeast  Level Estimated
09:25AM 41.0669 -73.7076 37° Northeast  Level Estimated
09:26AM 41.0669 -73.7076 37° Northeast  Level Estimated
09:27AM 41.0669 -73.7076 37° Northeast  Level Estimated
09:28AM 41.0669 -73.7076 37° Northeast  Level Estimated
09:29AM 41.0669 -73.7076 37° Northeast  Level Estimated
09:30AM 41.0669 -73.7076 37° Northeast  Level Estimated
09:31AM 41.0669 -73.7076 37° Northeast  Level Estimated
09:32AM 41.0669 -73.7076 37° Northeast  Level Estimated
09:33AM 41.0669 -73.7076 37° Northeast  Level Estimated
09:34AM 41.0669 -73.7076 37° Northeast  Level Estimated
09:35AM 41.0669 -73.7076 37° Northeast  Level Estimated
09:36AM 41.0669 -73.7076 37° Northeast  Level Estimated
09:37AM 41.0669 -73.7076 37° Northeast  Level Estimated
09:38AM 41.0669 -73.7076 37° Northeast  Level Estimated
09:39AM 41.0669 -73.7076 37° Northeast  Level Estimated
09:40AM 41.0669 -73.7076 37° Northeast  Level Estimated
09:41AM 41.0669 -73.7076 37° Northeast  Level Estimated
09:42AM 41.0669 -73.7076 37° Northeast  Level Estimated
09:43AM 41.0669 -73.7076 37° Northeast  Level Estimated
09:44AM 41.0669 -73.7076 37° Northeast  Level Estimated
09:45AM 41.0669 -73.7076 37° Northeast  Level Estimated
09:46AM 41.0669 -73.7076 37° Northeast  Level Estimated
09:47AM 41.0669 -73.7076 37° Northeast  Level Estimated
09:48AM 41.0669 -73.7076 37° Northeast  Level Estimated
09:49AM 41.0669 -73.7076 37° Northeast  Level Estimated
09:50AM 41.0669 -73.7076 37° Northeast  Level Estimated
09:51AM 41.0669 -73.7076 37° Northeast  Level Estimated
09:52AM 41.0669 -73.7076 37° Northeast  Level Estimated
09:53AM 41.0669 -73.7076 37° Northeast  Level Estimated
09:54AM 41.0669 -73.7076 37° Northeast  Level Estimated
09:55AM 41.0669 -73.7076 37° Northeast  Level Estimated
09:56AM 41.0669 -73.7076 37° Northeast  Level Estimated